Marlborough, United Kingdom
Current Conditions -  °F | °C
As of 5:50 PM on Sunday 23 Nov 2014 (Local Time) from EGDM Reporting Station
Overcast Overcast  
Wind Chill: 40°   Ceiling: 15000
Heat Index: 45°   Visibility: 6mi
Dew Point: 43°   Wind: 9mph
Humidity: 93%   Direction: 320°NW
Pressure: 30.09"   Gusts: NA
Location:  51.42°N, 1.73°W
Report Text: EGDM 231750Z AUTO 32008KT 9999 OVC150/// 07/06 Q1019
Loading
Personal Weather Stations






























Interactive Weather Map New forecast layout! Learn more

10-Day Weather Forecast

Advertisements
Track Severe Weather on mobile